Terminal Aerodrome Forecast
Issued by NWS Charleston, WV

Current Version | Previous Version | Graphics & Text | Print | Product List | Glossary On
Versions: 1 2 3 4 5 6 7 8 9 10 11 12 13 14 15 16 17 18 19 20
000
FTUS41 KRLX 231100
TAFPKB
TAF
KPKB 231128Z 2312/2412 10005KT P6SM BKN040
     FM240300 14006KT P6SM OVC040
     FM240400 13005KT 6SM -SHRA OVC035
     FM240600 15005KT 5SM -SHRA BR OVC030
     FM241100 15009KT 3SM -SHRA BR OVC025=

USA.gov is the U.S. government's official web portal to all federal, state and local government web resources and services.